Aba Airport


Codes: FZJF/
Name: Aba Airport
City: Aba
Country: Congo [DRC]
Elevation: 3051 ft.

Photos at Aba Airport


   Photos courtesy of SpottingLog. You can add your own sightings and photos by signing up for a free trial today.



No photos found.

Weather at Aba Airport


Time (UTC)DescriptionTempratureWindCloud coverageVisibilityPressureHumidity
16-Jun-2024 12:00Light Rain27°C2 mph, W75%8059m1010hPa65%
16-Jun-2024 15:00Light Rain26°C4 mph, SW65%7331m1010hPa74%
16-Jun-2024 18:00Light Rain22°C4 mph, SW73%10000m1012hPa87%
16-Jun-2024 21:00Overcast Clouds18°C4 mph, SW90%10000m1014hPa97%
17-Jun-2024 00:00Overcast Clouds18°C4 mph, S89%10000m1013hPa97%
17-Jun-2024 03:00Broken Clouds17°C4 mph, S76%10000m1014hPa97%
17-Jun-2024 06:00Scattered Clouds21°C7 mph, SW50%10000m1015hPa86%
17-Jun-2024 09:00Few Clouds28°C4 mph, SW15%10000m1013hPa53%
17-Jun-2024 12:00Scattered Clouds30°C4 mph, W25%10000m1010hPa44%
17-Jun-2024 15:00Overcast Clouds26°C4 mph, SW88%10000m1010hPa65%
17-Jun-2024 18:00Broken Clouds22°C2 mph, W72%10000m1012hPa71%
17-Jun-2024 21:00Scattered Clouds20°C4 mph, S33%10000m1013hPa81%
18-Jun-2024 00:00Broken Clouds18°C4 mph, SW55%10000m1013hPa89%
18-Jun-2024 03:00Few Clouds17°C4 mph, S14%10000m1014hPa97%
18-Jun-2024 06:00Clear Sky23°C4 mph, SW10%10000m1014hPa74%
18-Jun-2024 09:00Clear Sky29°C4 mph, SW9%10000m1013hPa50%
18-Jun-2024 12:00Few Clouds31°C2 mph, W20%10000m1010hPa43%
18-Jun-2024 15:00Broken Clouds27°C2 mph, SW78%10000m1010hPa60%
18-Jun-2024 18:00Broken Clouds22°C0 mph, E52%10000m1012hPa68%
18-Jun-2024 21:00Light Rain19°C2 mph, S38%10000m1013hPa84%
19-Jun-2024 00:00Scattered Clouds19°C2 mph, S27%10000m1012hPa86%
19-Jun-2024 03:00Broken Clouds19°C4 mph, S83%10000m1012hPa86%
19-Jun-2024 06:00Broken Clouds23°C2 mph, SE57%10000m1014hPa69%
19-Jun-2024 09:00Scattered Clouds31°C2 mph, W47%10000m1012hPa46%
19-Jun-2024 12:00Broken Clouds28°C2 mph, NE73%10000m1009hPa57%
19-Jun-2024 15:00Broken Clouds28°C4 mph, NW51%10000m1009hPa62%
19-Jun-2024 18:00Light Rain20°C4 mph, S36%10000m1013hPa88%
19-Jun-2024 21:00Light Rain18°C4 mph, S79%10000m1013hPa95%
20-Jun-2024 00:00Scattered Clouds18°C4 mph, S47%10000m1012hPa93%
20-Jun-2024 03:00Scattered Clouds18°C2 mph, S40%10000m1013hPa92%
20-Jun-2024 06:00Light Rain23°C2 mph, SE24%10000m1014hPa76%
20-Jun-2024 09:00Clear Sky31°C2 mph, SE1%10000m1013hPa43%
20-Jun-2024 12:00Scattered Clouds30°C2 mph, E26%10000m1010hPa44%
20-Jun-2024 15:00Broken Clouds26°C4 mph, W71%10000m1010hPa64%
20-Jun-2024 18:00Light Rain20°C2 mph, S74%10000m1013hPa86%
20-Jun-2024 21:00Broken Clouds19°C2 mph, S80%10000m1013hPa89%
21-Jun-2024 00:00Broken Clouds19°C2 mph, SE71%10000m1012hPa88%
21-Jun-2024 03:00Scattered Clouds18°C4 mph, SE45%10000m1013hPa88%
21-Jun-2024 06:00Scattered Clouds24°C4 mph, SE45%10000m1014hPa63%
21-Jun-2024 09:00Broken Clouds32°C4 mph, SE62%10000m1012hPa38%